Time;durP1;ratioP1;P1;durP2;ratioP2;P2;SDS_P1;SDS_P2;PMS_P1;PMS_P2;Temp;Humidity;BMP_temperature;BMP_pressure;BME280_temperature;BME280_humidity;BME280_pressure;Samples;Min_cycle;Max_cycle;Signal;HPM_P1;HPM_P2
2021/03/19 00:02:23;;;;;;;39.17;15.83;;;;;;;-1.73;91.43;101269.86;123350;1105;65351;-76
2021/03/19 00:04:50;;;;;;;30.63;13.27;;;;;;;-1.74;91.64;101273.41;123372;1102;64889;-76
2021/03/19 00:07:17;;;;;;;33.35;14.53;;;;;;;-1.75;92.39;101269.11;123454;1102;64945;-74
2021/03/19 00:09:44;;;;;;;49.93;18.47;;;;;;;-1.74;91.62;101276.00;126982;1102;62836;-74
2021/03/19 00:12:10;;;;;;;49.13;18.57;;;;;;;-1.74;91.53;101275.14;126988;1105;63646;-75
2021/03/19 00:14:36;;;;;;;45.80;17.67;;;;;;;-1.74;91.31;101281.20;126119;1103;65051;-75
2021/03/19 00:17:02;;;;;;;28.05;12.70;;;;;;;-1.74;91.58;101280.34;123391;1105;64918;-75
2021/03/19 00:19:29;;;;;;;32.33;13.77;;;;;;;-1.74;91.73;101275.14;123394;1105;64998;-73
2021/03/19 00:21:55;;;;;;;34.47;14.13;;;;;;;-1.75;91.56;101263.91;123397;1105;64889;-76
2021/03/19 00:24:21;;;;;;;42.45;15.48;;;;;;;-1.72;92.48;101274.16;123343;1105;65044;-77
2021/03/19 00:26:47;;;;;;;38.20;15.83;;;;;;;-1.71;91.13;101272.39;123380;1105;64978;-77
2021/03/19 00:29:14;;;;;;;30.90;15.67;;;;;;;-1.72;91.53;101270.70;123425;1106;64831;-76
2021/03/19 00:31:40;;;;;;;26.47;11.97;;;;;;;-1.75;91.65;101263.91;123429;1105;65346;-75
2021/03/19 00:34:06;;;;;;;28.43;12.37;;;;;;;-1.78;91.95;101264.08;123441;1104;64934;-77
2021/03/19 00:36:33;;;;;;;33.07;11.67;;;;;;;-1.80;91.15;101259.89;123443;1102;65702;-78
2021/03/19 00:38:59;;;;;;;29.40;12.23;;;;;;;-1.83;90.86;101266.06;123496;1102;64898;-76
2021/03/19 00:41:25;;;;;;;32.43;14.03;;;;;;;-1.87;91.09;101272.34;123425;1105;64917;-76
2021/03/19 00:43:52;;;;;;;40.67;12.77;;;;;;;-1.92;91.44;101261.36;123489;1102;64889;-75
2021/03/19 00:46:18;;;;;;;23.70;10.63;;;;;;;-1.96;91.92;101265.04;123421;1105;65648;-77
2021/03/19 00:48:44;;;;;;;18.67;8.20;;;;;;;-1.98;92.60;101282.48;123589;1102;64914;-75
2021/03/19 00:51:13;;;;;;;27.03;10.60;;;;;;;-2.00;92.26;101276.52;123445;1105;66140;-77
2021/03/19 00:53:39;;;;;;;32.63;12.03;;;;;;;-2.05;91.74;101274.99;123575;1103;65351;-76
2021/03/19 00:56:05;;;;;;;22.70;10.43;;;;;;;-2.07;91.06;101276.83;123436;1105;64885;-79
2021/03/19 00:58:31;;;;;;;28.03;10.07;;;;;;;-2.09;91.09;101283.86;123446;1104;64973;-79
2021/03/19 01:00:58;;;;;;;20.30;10.33;;;;;;;-2.12;92.12;101276.23;123412;1105;64892;-76
2021/03/19 01:03:24;;;;;;;19.27;8.57;;;;;;;-2.17;91.46;101273.02;123399;1102;64917;-75
2021/03/19 01:05:51;;;;;;;20.40;10.57;;;;;;;-2.19;92.16;101277.48;123429;1102;65330;-76
2021/03/19 01:08:17;;;;;;;18.67;9.70;;;;;;;-2.21;91.80;101281.92;123405;1106;65711;-76
2021/03/19 01:10:58;;;;;;;30.83;11.40;;;;;;;-2.23;91.23;101275.09;123389;1102;64940;-76
2021/03/19 01:13:25;;;;;;;31.13;12.63;;;;;;;-2.25;92.44;101295.98;123385;1105;66371;-78
2021/03/19 01:15:53;;;;;;;19.17;9.23;;;;;;;-2.26;91.41;101294.28;123573;1102;64895;-76
2021/03/19 01:18:24;;;;;;;15.27;5.40;;;;;;;-2.28;91.83;101293.52;123558;1102;64937;-75
2021/03/19 01:21:02;;;;;;;27.85;11.05;;;;;;;-2.28;91.99;101296.12;123421;1102;64898;-74
2021/03/19 01:23:28;;;;;;;24.37;9.47;;;;;;;-2.30;91.77;101297.95;123473;1105;64998;-77
2021/03/19 01:25:55;;;;;;;26.33;9.87;;;;;;;-2.33;90.90;101293.77;123357;1102;65936;-77
2021/03/19 01:28:22;;;;;;;20.57;8.20;;;;;;;-2.36;91.28;101295.66;123384;1105;65080;-77
2021/03/19 01:30:48;;;;;;;14.37;6.60;;;;;;;-2.38;91.31;101300.09;123405;1105;64982;-76
2021/03/19 01:33:16;;;;;;;18.63;7.83;;;;;;;-2.39;91.64;101306.22;123596;1105;64949;-76
2021/03/19 01:35:43;;;;;;;19.63;8.57;;;;;;;-2.39;92.40;101311.42;123515;1105;64838;-77
2021/03/19 01:38:11;;;;;;;24.17;10.47;;;;;;;-2.40;91.25;101307.98;123497;1102;64901;-76
2021/03/19 01:40:43;;;;;;;17.67;8.63;;;;;;;-2.40;91.85;101307.13;123422;1105;64998;-76
2021/03/19 01:43:13;;;;;;;6.97;3.30;;;;;;;-2.42;91.79;101314.16;123539;1105;65007;-75
2021/03/19 01:46:04;;;;;;;12.37;5.77;;;;;;;-2.42;91.47;101307.22;123535;1105;64841;-76
2021/03/19 01:49:08;;;;;;;14.25;6.20;;;;;;;-2.42;92.34;101316.75;123453;1102;64975;-77
2021/03/19 01:52:12;;;;;;;6.20;3.73;;;;;;;-2.42;91.66;101324.55;123390;1102;65859;-77
2021/03/19 01:55:16;;;;;;;7.37;3.33;;;;;;;-2.42;92.78;101333.20;123400;1102;65677;-77
2021/03/19 01:58:20;;;;;;;16.40;7.37;;;;;;;-2.40;93.18;101323.58;123456;1102;65683;-76
2021/03/19 02:01:24;;;;;;;13.80;6.00;;;;;;;-2.37;91.97;101322.58;123479;1102;65365;-76
2021/03/19 02:04:29;;;;;;;7.07;3.33;;;;;;;-2.37;93.10;101322.58;123461;1102;65252;-77
2021/03/19 02:07:33;;;;;;;22.83;8.93;;;;;;;-2.37;92.13;101320.81;123377;1105;65715;-77
2021/03/19 02:10:56;;;;;;;21.07;8.53;;;;;;;-2.35;92.25;101325.94;123396;1102;64943;-76
2021/03/19 02:14:00;;;;;;;11.33;4.90;;;;;;;-2.38;92.69;101326.08;123100;1105;64927;-77
2021/03/19 02:17:04;;;;;;;10.33;4.73;;;;;;;-2.40;91.69;101322.71;123212;1105;64952;-77
2021/03/19 02:20:09;;;;;;;10.27;5.13;;;;;;;-2.41;92.94;101337.47;123381;1105;65871;-78
2021/03/19 02:23:13;;;;;;;12.73;5.67;;;;;;;-2.42;93.17;101329.73;123398;1102;65007;-77
2021/03/19 02:26:17;;;;;;;11.00;5.27;;;;;;;-2.41;92.35;101334.87;123419;1102;64912;-77
2021/03/19 02:29:21;;;;;;;21.87;7.10;;;;;;;-2.37;92.54;101330.38;123428;1101;64940;-77
2021/03/19 02:31:57;;;;;;;7.97;3.97;;;;;;;-2.33;93.08;101334.50;123449;1106;64899;-76
2021/03/19 02:34:29;;;;;;;14.13;7.03;;;;;;;-2.30;92.51;101334.34;123408;1105;64889;-75
2021/03/19 02:36:56;;;;;;;10.63;4.77;;;;;;;-2.27;92.03;101339.40;123439;1102;64886;-76
2021/03/19 02:39:23;;;;;;;15.13;6.33;;;;;;;-2.23;92.85;101340.93;123413;1105;64892;-76
2021/03/19 02:41:49;;;;;;;7.37;3.87;;;;;;;-2.20;92.66;101345.13;123426;1102;64949;-76
2021/03/19 02:44:15;;;;;;;18.30;7.83;;;;;;;-2.16;92.43;101344.89;123391;1105;65681;-77
2021/03/19 02:46:42;;;;;;;19.10;9.17;;;;;;;-2.11;92.42;101355.89;123456;1102;64927;-78
2021/03/19 02:49:08;;;;;;;13.93;6.57;;;;;;;-2.07;92.66;101357.41;123393;1103;65020;-77
2021/03/19 02:51:34;;;;;;;7.87;3.22;;;;;;;-2.03;92.42;101354.68;123370;1104;65076;-76
2021/03/19 02:54:01;;;;;;;15.20;5.83;;;;;;;-1.98;92.60;101352.67;123440;1102;65252;-76
2021/03/19 02:56:27;;;;;;;10.80;4.30;;;;;;;-1.95;92.07;101361.17;123404;1102;64889;-76
2021/03/19 02:58:54;;;;;;;8.23;4.07;;;;;;;-1.94;91.95;101362.84;123586;1102;64937;-77
2021/03/19 03:01:20;;;;;;;8.75;3.70;;;;;;;-1.94;92.61;101356.80;123441;1105;64994;-77
2021/03/19 03:03:47;;;;;;;14.97;6.30;;;;;;;-1.90;92.70;101358.33;123508;1103;64940;-77
2021/03/19 03:06:13;;;;;;;10.87;5.33;;;;;;;-1.86;90.85;101370.26;123429;1102;66190;-78
2021/03/19 03:08:39;;;;;;;11.37;4.80;;;;;;;-1.86;91.26;101367.66;123400;1105;65027;-77
2021/03/19 03:11:06;;;;;;;11.50;4.05;;;;;;;-1.84;91.74;101368.42;123410;1105;65707;-77
2021/03/19 03:13:32;;;;;;;6.75;3.55;;;;;;;-1.82;91.54;101376.98;123427;1102;64885;-77
2021/03/19 03:15:58;;;;;;;7.40;2.90;;;;;;;-1.84;91.41;101376.22;123434;1103;64969;-77
2021/03/19 03:18:25;;;;;;;21.03;5.33;;;;;;;-1.84;91.59;101378.83;123438;1102;66040;-77
2021/03/19 03:20:58;;;;;;;17.73;7.13;;;;;;;-1.85;90.59;101377.13;123408;1102;65374;-77
2021/03/19 03:23:27;;;;;;;9.95;5.65;;;;;;;-1.85;91.30;101380.59;123443;1104;64885;-76
2021/03/19 03:25:54;;;;;;;11.00;5.20;;;;;;;-1.87;91.01;101387.62;123435;1102;64988;-78
2021/03/19 03:28:21;;;;;;;16.67;6.17;;;;;;;-1.92;90.21;101383.56;123342;1102;64927;-77
2021/03/19 03:30:55;;;;;;;6.10;3.20;;;;;;;-1.97;90.43;101377.77;123455;1102;64966;-77
2021/03/19 03:33:25;;;;;;;14.65;6.70;;;;;;;-2.00;90.52;101389.14;123609;1105;64947;-77
2021/03/19 03:35:52;;;;;;;13.60;5.53;;;;;;;-2.07;91.33;101391.21;123478;1102;64895;-77
2021/03/19 03:38:24;;;;;;;11.13;7.30;;;;;;;-2.12;91.08;101393.21;123455;1105;65135;-77
2021/03/19 03:40:57;;;;;;;9.63;4.47;;;;;;;-2.18;91.49;101406.51;123525;1102;64910;-77
2021/03/19 03:43:25;;;;;;;13.63;6.00;;;;;;;-2.22;90.64;101401.54;123370;1106;64923;-77
2021/03/19 03:45:52;;;;;;;11.30;4.67;;;;;;;-2.28;90.98;101405.27;123333;1106;65715;-77
2021/03/19 03:48:21;;;;;;;11.70;5.57;;;;;;;-2.33;90.98;101415.06;123437;1104;65346;-76
2021/03/19 03:50:48;;;;;;;8.27;4.47;;;;;;;-2.40;90.65;101416.25;123667;1102;65993;-77
2021/03/19 03:53:14;;;;;;;14.40;5.67;;;;;;;-2.46;91.32;101412.20;123408;1106;64985;-77
2021/03/19 03:55:41;;;;;;;14.43;6.93;;;;;;;-2.50;90.55;101416.70;123427;1105;64918;-76
2021/03/19 03:58:10;;;;;;;12.03;4.97;;;;;;;-2.54;90.68;101420.35;123584;1102;64921;-76
2021/03/19 04:00:38;;;;;;;10.47;4.40;;;;;;;-2.58;91.80;101418.81;123512;1105;65044;-75
2021/03/19 04:03:05;;;;;;;9.33;4.43;;;;;;;-2.64;91.91;101421.70;123450;1104;64949;-77
2021/03/19 04:05:37;;;;;;;5.30;2.67;;;;;;;-2.67;91.91;101424.45;123717;1105;64838;-75
2021/03/19 04:08:05;;;;;;;12.53;5.77;;;;;;;-2.72;91.96;101419.48;123438;1102;64936;-76
2021/03/19 04:10:32;;;;;;;8.27;4.17;;;;;;;-2.74;91.53;101428.23;123467;1103;64925;-76
2021/03/19 04:12:59;;;;;;;9.07;3.57;;;;;;;-2.76;92.11;101428.32;123408;1102;64882;-77
2021/03/19 04:15:26;;;;;;;8.97;4.70;;;;;;;-2.79;92.13;101427.61;123556;1105;64835;-76
2021/03/19 04:17:58;;;;;;;6.70;3.63;;;;;;;-2.81;92.02;101426.84;123519;1105;64952;-77
2021/03/19 04:20:27;;;;;;;11.90;5.43;;;;;;;-2.87;91.28;101431.41;123382;1105;64991;-75
2021/03/19 04:22:55;;;;;;;8.00;4.23;;;;;;;-2.88;92.25;101432.31;123475;1102;64830;-77
2021/03/19 04:25:22;;;;;;;9.13;4.13;;;;;;;-2.91;91.64;101434.19;123410;1102;65253;-75
2021/03/19 04:27:58;;;;;;;12.57;5.37;;;;;;;-2.92;92.10;101442.91;123395;1105;64995;-76
2021/03/19 04:30:32;;;;;;;8.33;3.67;;;;;;;-2.96;91.95;101444.79;123401;1105;64966;-76
2021/03/19 04:33:00;;;;;;;14.23;5.50;;;;;;;-2.99;92.15;101439.75;123446;1102;65252;-77
2021/03/19 04:35:27;;;;;;;12.10;4.73;;;;;;;-3.02;91.87;101445.06;123516;1105;64917;-77
2021/03/19 04:37:58;;;;;;;11.70;5.60;;;;;;;-3.05;91.58;101440.02;123591;1105;65014;-78
2021/03/19 04:40:26;;;;;;;9.63;4.50;;;;;;;-3.07;92.41;101444.45;123505;1105;65048;-78
2021/03/19 04:42:54;;;;;;;13.50;5.33;;;;;;;-3.09;91.71;101446.27;123450;1105;64889;-77
2021/03/19 04:45:21;;;;;;;12.90;5.47;;;;;;;-3.11;91.55;101451.52;123408;1102;65648;-76
2021/03/19 04:47:48;;;;;;;9.70;4.50;;;;;;;-3.11;91.96;101455.88;123572;1102;65071;-75
2021/03/19 04:50:15;;;;;;;9.60;4.80;;;;;;;-3.13;92.56;101458.52;123374;1102;64905;-76
2021/03/19 04:52:41;;;;;;;8.50;5.17;;;;;;;-3.13;92.37;101458.52;123454;1102;64911;-77
2021/03/19 04:55:09;;;;;;;9.83;5.05;;;;;;;-3.14;92.07;101461.21;123428;1105;64933;-76
2021/03/19 04:57:36;;;;;;;8.93;4.83;;;;;;;-3.15;92.03;101459.51;123410;1106;65681;-75
2021/03/19 05:00:07;;;;;;;10.93;6.00;;;;;;;-3.17;92.31;101458.73;123420;1105;65225;-76
2021/03/19 05:02:35;;;;;;;9.40;4.10;;;;;;;-3.21;92.50;101465.83;123465;1106;65693;-76
2021/03/19 05:05:05;;;;;;;10.10;2.87;;;;;;;-3.22;92.27;101464.13;123719;1102;64997;-75
2021/03/19 05:07:31;;;;;;;7.33;4.20;;;;;;;-3.23;92.04;101466.78;123617;1102;64914;-77
2021/03/19 05:09:57;;;;;;;9.03;4.37;;;;;;;-3.25;92.56;101472.06;123401;1103;64953;-77
2021/03/19 05:12:24;;;;;;;3.47;2.30;;;;;;;-3.26;92.13;101472.12;123458;1105;65246;-76
2021/03/19 05:14:50;;;;;;;6.90;2.30;;;;;;;-3.25;92.41;101463.41;123597;1105;64886;-76
2021/03/19 05:17:16;;;;;;;11.43;3.70;;;;;;;-3.28;92.69;101464.39;123372;1102;64998;-76
2021/03/19 05:19:43;;;;;;;5.17;2.83;;;;;;;-3.30;92.65;101464.45;123851;1101;64953;-75
2021/03/19 05:22:09;;;;;;;5.28;2.58;;;;;;;-3.29;92.52;101475.70;123424;1102;64915;-77
2021/03/19 05:24:36;;;;;;;13.10;5.53;;;;;;;-3.31;92.37;101470.56;123422;1105;64962;-76
2021/03/19 05:27:02;;;;;;;13.33;4.67;;;;;;;-3.30;92.66;101471.41;123401;1102;65699;-75
2021/03/19 05:29:28;;;;;;;8.40;3.67;;;;;;;-3.29;93.03;101476.53;123457;1102;64908;-76
2021/03/19 05:31:56;;;;;;;6.90;4.03;;;;;;;-3.29;92.83;101479.12;123440;1104;65802;-75
2021/03/19 05:34:23;;;;;;;16.33;5.23;;;;;;;-3.28;92.48;101487.75;123431;1103;64921;-75
2021/03/19 05:36:50;;;;;;;9.03;4.00;;;;;;;-3.27;92.91;101481.66;123430;1105;64837;-75
2021/03/19 05:39:16;;;;;;;13.00;5.20;;;;;;;-3.25;92.72;101489.36;123366;1102;64891;-76
2021/03/19 05:41:43;;;;;;;9.90;5.03;;;;;;;-3.24;92.55;101496.25;123402;1102;64934;-78
2021/03/19 05:44:12;;;;;;;12.50;5.45;;;;;;;-3.22;92.71;101502.22;123457;1102;64896;-77
2021/03/19 05:46:52;;;;;;;10.37;4.97;;;;;;;-3.18;92.33;101495.98;123546;1103;64994;-82
2021/03/19 05:49:25;;;;;;;7.37;3.93;;;;;;;-3.15;93.03;101495.84;123420;1105;64968;-77
2021/03/19 05:51:55;;;;;;;6.85;3.85;;;;;;;-3.11;92.53;101499.98;123495;1102;64937;-76
2021/03/19 05:54:35;;;;;;;7.33;3.30;;;;;;;-3.07;93.17;101498.95;123373;1105;65020;-76
2021/03/19 05:57:04;;;;;;;6.20;3.07;;;;;;;-3.04;92.43;101498.80;123432;1102;65013;-76
2021/03/19 05:59:32;;;;;;;7.43;2.87;;;;;;;-2.97;92.87;101508.02;123397;1102;64933;-75
2021/03/19 06:01:59;;;;;;;7.55;4.00;;;;;;;-2.93;92.21;101517.36;123440;1105;64908;-77
2021/03/19 06:04:28;;;;;;;10.15;3.40;;;;;;;-2.88;92.22;101505.00;123463;1102;65353;-76
2021/03/19 06:07:03;;;;;;;6.40;2.40;;;;;;;-2.83;92.04;101507.39;123569;1105;66233;-77
2021/03/19 06:09:34;;;;;;;8.23;4.03;;;;;;;-2.77;92.63;101514.91;123550;1106;66114;-77
2021/03/19 06:12:06;;;;;;;5.80;3.60;;;;;;;-2.72;91.76;101514.70;123504;1102;66194;-76
2021/03/19 06:14:51;;;;;;;8.47;3.67;;;;;;;-2.65;91.66;101518.72;123389;1105;64984;-77
2021/03/19 06:17:42;;;;;;;8.60;3.90;;;;;;;-2.59;91.57;101515.85;123532;1105;64898;-75
2021/03/19 06:20:12;;;;;;;2.40;1.60;;;;;;;-2.53;92.07;101510.38;123491;1105;64988;-76
2021/03/19 06:23:18;;;;;;;4.90;2.67;;;;;;;-2.47;91.93;101517.86;123374;1105;64998;-76
2021/03/19 06:25:57;;;;;;;;;;;;;;;-2.40;91.52;101525.37;123413;1102;64908;-74
2021/03/19 06:28:34;;;;;;;7.03;3.30;;;;;;;-2.31;91.46;101532.77;123452;1103;64912;-74
2021/03/19 06:31:21;;;;;;;3.83;2.07;;;;;;;-2.23;91.58;101538.45;123415;1102;65228;-77
2021/03/19 06:34:07;;;;;;;2.33;1.57;;;;;;;-2.12;91.63;101537.95;123426;1105;65023;-76
2021/03/19 06:36:57;;;;;;;5.50;3.12;;;;;;;-2.00;91.53;101542.54;123346;1102;65630;-72
2021/03/19 06:39:30;;;;;;;5.10;2.70;;;;;;;-1.86;90.52;101542.73;123392;1102;64857;-75
2021/03/19 06:42:03;;;;;;;10.03;3.80;;;;;;;-1.76;89.99;101548.34;123383;1105;64918;-75
2021/03/19 06:44:40;;;;;;;4.10;1.90;;;;;;;-1.66;90.66;101548.72;123391;1102;64943;-76
2021/03/19 06:47:16;;;;;;;3.77;2.00;;;;;;;-1.55;90.82;101550.79;123348;1106;65625;-76
2021/03/19 06:49:55;;;;;;;3.50;1.60;;;;;;;-1.49;89.51;101555.69;123432;1105;64991;-76
2021/03/19 06:52:24;;;;;;;4.27;1.80;;;;;;;-1.42;89.43;101557.09;123588;1102;65011;-75
2021/03/19 06:54:59;;;;;;;7.17;3.27;;;;;;;-1.33;89.57;101567.03;123380;1102;64892;-77
2021/03/19 06:57:44;;;;;;;3.53;2.20;;;;;;;-1.26;89.09;101562.36;123384;1102;65713;-76
2021/03/19 07:00:12;;;;;;;5.83;2.77;;;;;;;-1.18;89.44;101570.62;123243;1105;65960;-75
2021/03/19 07:03:02;;;;;;;4.85;2.50;;;;;;;-1.11;88.41;101569.38;123498;1102;64995;-75
2021/03/19 07:05:48;;;;;;;9.53;3.30;;;;;;;-0.99;89.35;101572.31;123416;1102;64880;-74
2021/03/19 07:09:04;;;;;;;5.33;2.33;;;;;;;-0.90;87.28;101583.08;123367;1104;66352;-76
2021/03/19 07:11:52;;;;;;;3.33;2.10;;;;;;;-0.79;87.23;101584.29;123266;1105;64908;-76
2021/03/19 07:14:56;;;;;;;6.37;2.37;;;;;;;-0.69;87.70;101582.89;123355;1102;65674;-77
2021/03/19 07:17:35;;;;;;;2.93;1.83;;;;;;;-0.62;86.12;101579.90;123391;1102;64908;-77
2021/03/19 07:20:17;;;;;;;5.17;2.10;;;;;;;-0.50;87.59;101582.77;123494;1105;64926;-73
2021/03/19 07:23:11;;;;;;;8.33;2.50;;;;;;;-0.41;86.45;101590.92;123373;1102;65030;-75
2021/03/19 07:26:08;;;;;;;2.60;1.80;;;;;;;-0.33;85.70;101600.12;123403;1105;64940;-75
2021/03/19 07:28:50;;;;;;;5.03;2.30;;;;;;;-0.24;85.59;101602.22;123385;1105;64969;-76
2021/03/19 07:32:04;;;;;;;3.63;2.03;;;;;;;-0.15;85.71;101606.95;123313;1105;65052;-76
2021/03/19 07:34:52;;;;;;;2.83;1.43;;;;;;;-0.02;84.57;101607.96;123303;1102;64895;-76
2021/03/19 07:37:18;;;;;;;3.80;2.03;;;;;;;0.07;84.96;101614.44;123347;1105;64960;-76
2021/03/19 07:40:18;;;;;;;5.20;2.27;;;;;;;0.15;84.82;101614.00;123311;1102;64906;-77
2021/03/19 07:43:15;;;;;;;4.27;2.17;;;;;;;0.30;84.55;101604.47;123228;1105;65033;-74
2021/03/19 07:46:03;;;;;;;5.67;2.93;;;;;;;0.48;84.91;101603.45;123386;1102;64895;-76
2021/03/19 07:48:36;;;;;;;2.63;1.57;;;;;;;0.56;83.73;101601.24;123342;1105;64994;-75
2021/03/19 07:51:24;;;;;;;4.70;1.77;;;;;;;0.66;84.00;101601.56;123407;1102;64873;-74
2021/03/19 07:54:10;;;;;;;3.63;1.73;;;;;;;0.78;82.57;101615.67;123376;1103;64885;-77
2021/03/19 07:56:57;;;;;;;3.67;2.40;;;;;;;0.90;82.52;101614.13;123378;1105;65021;-76
2021/03/19 07:59:53;;;;;;;5.80;1.90;;;;;;;1.03;82.03;101619.48;123385;1102;64870;-76
2021/03/19 08:02:55;;;;;;;2.60;1.23;;;;;;;1.11;80.29;101628.55;123379;1105;64946;-76
2021/03/19 08:05:46;;;;;;;4.20;1.77;;;;;;;1.22;81.20;101633.97;123407;1105;65695;-76
2021/03/19 08:08:39;;;;;;;4.63;2.07;;;;;;;1.33;80.84;101641.16;123342;1105;65013;-76
2021/03/19 08:11:21;;;;;;;3.93;1.30;;;;;;;1.43;78.92;101633.63;123462;1102;65032;-76
2021/03/19 08:14:04;;;;;;;6.07;2.00;;;;;;;1.55;80.05;101635.50;123446;1105;64934;-77
2021/03/19 08:16:46;;;;;;;2.70;1.00;;;;;;;1.71;78.84;101639.78;123341;1102;64953;-76
2021/03/19 08:19:27;;;;;;;5.03;2.20;;;;;;;1.82;79.82;101640.79;123437;1102;64918;-76
2021/03/19 08:22:08;;;;;;;2.40;1.17;;;;;;;1.93;77.27;101641.91;123358;1105;64998;-76
2021/03/19 08:24:57;;;;;;;1.83;1.10;;;;;;;1.97;76.65;101639.00;123397;1105;65002;-76
2021/03/19 08:27:46;;;;;;;2.80;1.40;;;;;;;2.07;77.25;101654.14;123422;1104;65007;-78
2021/03/19 08:30:24;;;;;;;2.67;1.27;;;;;;;2.19;76.10;101648.11;123408;1105;64934;-78
2021/03/19 08:33:06;;;;;;;2.33;1.20;;;;;;;2.22;73.99;101668.88;123474;1105;64774;-77
2021/03/19 08:35:41;;;;;;;2.77;1.20;;;;;;;2.15;73.40;101668.42;123338;1105;64963;-77
2021/03/19 08:38:30;;;;;;;1.30;0.85;;;;;;;2.23;72.94;101670.55;123424;1102;64979;-76
2021/03/19 08:41:01;;;;;;;4.87;1.80;;;;;;;2.33;73.55;101666.41;123395;1102;65626;-74
2021/03/19 08:44:05;;;;;;;2.67;1.17;;;;;;;2.44;73.13;101663.97;123442;1105;64991;-77
2021/03/19 08:46:44;;;;;;;1.57;1.10;;;;;;;2.65;73.55;101658.27;123179;1105;64908;-77
2021/03/19 08:49:25;;;;;;;4.00;1.00;;;;;;;2.82;72.96;101667.64;123351;1102;66124;-76
2021/03/19 08:51:56;;;;;;;5.65;1.65;;;;;;;2.90;71.08;101664.53;123379;1105;64914;-76
2021/03/19 08:54:31;;;;;;;3.93;1.60;;;;;;;2.96;69.90;101677.23;123511;1103;64914;-77
2021/03/19 08:57:03;;;;;;;3.17;1.10;;;;;;;3.07;70.11;101677.35;123441;1102;64914;-74
2021/03/19 08:59:35;;;;;;;3.10;1.40;;;;;;;3.29;71.47;101670.67;123330;1105;65020;-77
2021/03/19 09:02:07;;;;;;;3.80;1.20;;;;;;;3.34;67.80;101673.84;123394;1102;64901;-77
2021/03/19 09:04:50;;;;;;;2.70;1.40;;;;;;;3.42;69.65;101666.27;123441;1105;65030;-77
2021/03/19 09:07:19;;;;;;;4.87;1.50;;;;;;;3.57;69.14;101670.48;123412;1105;64902;-75
2021/03/19 09:09:46;;;;;;;2.10;1.20;;;;;;;3.71;68.47;101668.69;123354;1102;65364;-77
2021/03/19 09:12:18;;;;;;;3.20;1.40;;;;;;;3.78;68.59;101662.91;123455;1102;64940;-76
2021/03/19 09:14:51;;;;;;;3.43;1.70;;;;;;;3.95;69.22;101669.58;123427;1102;64943;-76
2021/03/19 09:17:43;;;;;;;2.57;1.17;;;;;;;4.13;66.69;101664.00;123382;1102;64940;-77
2021/03/19 09:20:26;;;;;;;1.53;0.93;;;;;;;4.33;66.14;101663.39;123413;1104;65325;-77
2021/03/19 09:23:08;;;;;;;4.93;1.33;;;;;;;4.48;68.45;101661.45;123365;1103;66107;-77
2021/03/19 09:25:56;;;;;;;2.37;1.37;;;;;;;4.62;67.07;101658.66;123379;1104;65405;-77
2021/03/19 09:28:59;;;;;;;3.50;1.20;;;;;;;4.74;65.63;101672.70;123468;1102;64924;-75
2021/03/19 09:31:28;;;;;;;4.00;1.40;;;;;;;4.80;65.42;101664.37;123293;1105;66216;-77
2021/03/19 09:33:58;;;;;;;2.53;1.23;;;;;;;4.90;62.98;101678.48;123394;1106;64886;-77
2021/03/19 09:36:52;;;;;;;2.43;1.37;;;;;;;5.06;64.29;101682.62;123737;1102;64914;-77
2021/03/19 09:39:44;;;;;;;4.77;1.70;;;;;;;5.16;64.17;101680.95;123388;1102;65712;-77
2021/03/19 09:42:33;;;;;;;3.90;1.67;;;;;;;5.23;63.27;101682.19;123368;1102;65714;-78
2021/03/19 09:45:03;;;;;;;1.80;1.10;;;;;;;5.37;62.40;101681.13;123347;1102;64908;-76
2021/03/19 09:47:43;;;;;;;3.33;1.50;;;;;;;5.51;62.26;101682.72;123474;1104;64888;-76
2021/03/19 09:50:17;;;;;;;3.00;1.33;;;;;;;5.66;62.84;101686.80;123368;1105;64914;-75
2021/03/19 09:53:01;;;;;;;2.53;1.70;;;;;;;5.82;63.78;101678.56;123339;1105;65463;-74
2021/03/19 09:55:40;;;;;;;2.40;1.30;;;;;;;5.86;61.90;101687.04;125873;1102;63092;-75
2021/03/19 09:58:30;;;;;;;6.87;1.60;;;;;;;5.90;61.78;101691.11;123394;1105;65703;-75
2021/03/19 10:01:33;;;;;;;2.50;1.53;;;;;;;6.04;62.75;101690.91;123345;1105;65247;-75
2021/03/19 10:04:04;;;;;;;2.57;1.53;;;;;;;6.23;62.06;101694.73;123449;1105;64931;-76
2021/03/19 10:06:48;;;;;;;2.93;1.83;;;;;;;6.29;62.01;101688.94;123445;1103;64920;-77
2021/03/19 10:09:26;;;;;;;3.20;1.73;;;;;;;6.28;60.76;101692.55;123368;1105;64889;-74
2021/03/19 10:12:18;;;;;;;5.83;1.67;;;;;;;6.28;62.36;101693.38;123521;1105;65710;-76
2021/03/19 10:14:51;;;;;;;3.87;1.77;;;;;;;6.27;60.46;101694.36;123386;1102;64863;-77
2021/03/19 10:17:24;;;;;;;2.47;1.50;;;;;;;6.06;59.96;101691.63;123356;1105;64921;-75
2021/03/19 10:19:54;;;;;;;2.55;1.80;;;;;;;5.94;60.29;101697.81;123394;1105;64930;-75
2021/03/19 10:22:50;;;;;;;4.70;1.77;;;;;;;5.88;61.37;101695.66;123389;1105;64898;-77
2021/03/19 10:25:40;;;;;;;5.03;1.67;;;;;;;5.98;61.34;101694.02;123407;1105;66120;-74
2021/03/19 10:28:26;;;;;;;2.97;1.57;;;;;;;5.84;60.81;101704.75;123245;1102;64882;-77
2021/03/19 10:30:58;;;;;;;1.87;1.13;;;;;;;6.05;61.40;101697.84;123427;1103;66136;-78
2021/03/19 10:33:49;;;;;;;3.97;1.90;;;;;;;6.32;61.32;101696.62;123474;1105;64850;-78
2021/03/19 10:36:19;;;;;;;4.47;1.90;;;;;;;6.68;61.27;101695.45;123368;1105;64956;-76
2021/03/19 10:39:08;;;;;;;4.47;1.83;;;;;;;6.87;57.55;101700.06;123495;1104;64889;-76
2021/03/19 10:41:42;;;;;;;3.07;1.87;;;;;;;7.18;58.22;101692.23;123315;1105;64937;-77
2021/03/19 10:44:35;;;;;;;3.23;1.93;;;;;;;7.43;59.88;101706.02;123264;1105;64902;-77
2021/03/19 10:47:20;;;;;;;2.67;1.43;;;;;;;7.65;57.42;101705.88;123448;1105;64921;-78
2021/03/19 10:49:54;;;;;;;3.35;2.00;;;;;;;7.90;57.14;101703.76;123385;1102;64967;-77
2021/03/19 10:52:35;;;;;;;3.73;1.57;;;;;;;8.18;55.54;101704.83;123509;1102;64892;-77
2021/03/19 10:55:14;;;;;;;4.40;1.80;;;;;;;8.33;51.31;101711.44;123477;1105;64908;-76
2021/03/19 10:57:41;;;;;;;4.47;1.93;;;;;;;8.55;53.78;101710.39;123401;1103;64883;-79
2021/03/19 11:00:40;;;;;;;4.17;2.00;;;;;;;8.72;50.08;101710.70;123412;1105;64965;-77
2021/03/19 11:03:24;;;;;;;3.30;1.60;;;;;;;8.96;50.96;101718.22;123488;1102;64911;-78
2021/03/19 11:06:09;;;;;;;2.30;1.43;;;;;;;9.06;49.97;101712.94;123470;1105;65027;-78
2021/03/19 11:08:36;;;;;;;2.72;1.62;;;;;;;9.14;49.38;101724.50;123449;1102;65173;-78
2021/03/19 11:11:03;;;;;;;8.00;1.70;;;;;;;9.21;49.14;101724.77;123371;1102;64863;-77
2021/03/19 11:13:36;;;;;;;2.30;1.50;;;;;;;9.17;48.72;101715.43;123375;1105;64914;-78
2021/03/19 11:16:24;;;;;;;3.70;1.37;;;;;;;9.27;47.67;101720.73;123362;1106;65245;-78
2021/03/19 11:19:04;;;;;;;3.37;1.43;;;;;;;9.30;47.38;101702.73;123349;1105;65117;-78
2021/03/19 11:21:32;;;;;;;2.60;1.43;;;;;;;9.47;48.76;101713.58;123375;1106;65305;-78
2021/03/19 11:24:23;;;;;;;1.77;1.50;;;;;;;9.61;48.73;101715.78;123350;1102;64905;-77
2021/03/19 11:27:18;;;;;;;6.17;1.90;;;;;;;9.66;48.12;101726.77;123358;1102;64940;-77
2021/03/19 11:29:46;;;;;;;5.60;1.70;;;;;;;9.78;48.03;101725.63;123495;1105;65775;-77
2021/03/19 11:32:12;;;;;;;3.35;2.10;;;;;;;9.63;47.65;101723.56;123496;1105;65379;-77
2021/03/19 11:34:42;;;;;;;3.97;1.47;;;;;;;9.38;49.08;101734.64;123488;1102;64911;-75
2021/03/19 11:37:24;;;;;;;3.20;1.60;;;;;;;9.04;50.27;101730.77;123364;1102;66085;-76
2021/03/19 11:39:55;;;;;;;4.63;1.90;;;;;;;8.88;50.96;101737.45;123489;1102;64832;-79
2021/03/19 11:42:26;;;;;;;2.40;1.43;;;;;;;8.93;50.29;101740.51;123610;1105;64838;-78
2021/03/19 11:45:07;;;;;;;2.77;1.70;;;;;;;9.25;47.89;101743.86;123463;1105;64965;-76
2021/03/19 11:47:38;;;;;;;4.47;2.50;;;;;;;9.28;47.42;101730.33;123535;1102;64958;-76
2021/03/19 11:50:26;;;;;;;5.57;2.63;;;;;;;9.04;49.33;101741.36;123475;1105;65268;-76
2021/03/19 11:53:01;;;;;;;2.47;1.67;;;;;;;8.72;48.45;101750.38;123361;1102;64825;-77
2021/03/19 11:55:41;;;;;;;4.50;1.73;;;;;;;8.53;49.22;101754.64;123485;1103;65288;-77
2021/03/19 11:58:14;;;;;;;3.60;1.45;;;;;;;8.35;49.67;101754.44;123533;1104;64899;-75
2021/03/19 12:00:42;;;;;;;2.23;1.17;;;;;;;8.13;49.01;101758.09;123370;1102;64913;-76